sensor_id;sensor_type;location;lat;lon;timestamp;pressure;altitude;pressure_sealevel;temperature;humidity
56414;BME280;42318;48.452;19.526;2023-05-16T00:01:25;97838.44;;;20.66;51.56
56414;BME280;42318;48.452;19.526;2023-05-16T00:08:59;97838.19;;;20.68;51.66
56414;BME280;42318;48.452;19.526;2023-05-16T00:16:30;97834.09;;;20.65;51.73
56414;BME280;42318;48.452;19.526;2023-05-16T00:24:01;97837.91;;;20.64;51.80
56414;BME280;42318;48.452;19.526;2023-05-16T00:31:32;97837.66;;;20.61;51.75
56414;BME280;42318;48.452;19.526;2023-05-16T00:39:03;97833.03;;;20.56;51.83
56414;BME280;42318;48.452;19.526;2023-05-16T00:46:34;97833.84;;;20.57;52.07
56414;BME280;42318;48.452;19.526;2023-05-16T00:54:05;97816.44;;;20.53;51.75
56414;BME280;42318;48.452;19.526;2023-05-16T01:01:37;97822.44;;;20.50;51.88
56414;BME280;42318;48.452;19.526;2023-05-16T01:09:08;97809.94;;;20.44;51.92
56414;BME280;42318;48.452;19.526;2023-05-16T01:16:45;97808.03;;;20.44;52.12
56414;BME280;42318;48.452;19.526;2023-05-16T01:24:22;97811.84;;;20.43;51.77
56414;BME280;42318;48.452;19.526;2023-05-16T01:31:56;97824.06;;;20.46;52.26
56414;BME280;42318;48.452;19.526;2023-05-16T01:47:40;97806.63;;;20.57;51.57
56414;BME280;42318;48.452;19.526;2023-05-16T02:02:58;97818.03;;;20.64;51.38
56414;BME280;42318;48.452;19.526;2023-05-16T02:10:29;97823.75;;;20.67;51.48
56414;BME280;42318;48.452;19.526;2023-05-16T02:18:00;97820.50;;;20.65;51.72
56414;BME280;42318;48.452;19.526;2023-05-16T02:25:31;97803.63;;;20.63;51.52
56414;BME280;42318;48.452;19.526;2023-05-16T02:33:02;97806.63;;;20.62;51.64
56414;BME280;42318;48.452;19.526;2023-05-16T02:40:33;97816.41;;;20.63;51.78
56414;BME280;42318;48.452;19.526;2023-05-16T02:48:04;97825.66;;;20.62;51.47
56414;BME280;42318;48.452;19.526;2023-05-16T02:55:35;97811.53;;;20.55;51.66
56414;BME280;42318;48.452;19.526;2023-05-16T03:03:05;97793.84;;;20.52;51.65
56414;BME280;42318;48.452;19.526;2023-05-16T03:10:36;97780.53;;;20.51;51.76
56414;BME280;42318;48.452;19.526;2023-05-16T03:18:07;97797.41;;;20.48;51.74
56414;BME280;42318;48.452;19.526;2023-05-16T03:25:38;97813.19;;;20.51;51.86
56414;BME280;42318;48.452;19.526;2023-05-16T03:33:08;97811.00;;;20.53;51.82
56414;BME280;42318;48.452;19.526;2023-05-16T03:40:40;97770.19;;;20.48;51.50
56414;BME280;42318;48.452;19.526;2023-05-16T03:48:10;97796.28;;;20.59;51.55
56414;BME280;42318;48.452;19.526;2023-05-16T03:55:41;97811.53;;;20.55;51.76
56414;BME280;42318;48.452;19.526;2023-05-16T04:03:13;97827.06;;;20.54;51.93
56414;BME280;42318;48.452;19.526;2023-05-16T04:10:44;97819.69;;;20.55;51.83
56414;BME280;42318;48.452;19.526;2023-05-16T04:18:15;97807.19;;;20.54;51.63
56414;BME280;42318;48.452;19.526;2023-05-16T04:25:45;97831.13;;;20.52;51.85
56414;BME280;42318;48.452;19.526;2023-05-16T04:33:16;97818.09;;;20.44;51.81
56414;BME280;42318;48.452;19.526;2023-05-16T04:40:48;97843.66;;;20.48;51.81
56414;BME280;42318;48.452;19.526;2023-05-16T04:48:20;97851.28;;;20.46;51.92
56414;BME280;42318;48.452;19.526;2023-05-16T04:55:51;97863.81;;;20.42;51.78
56414;BME280;42318;48.452;19.526;2023-05-16T05:03:22;97858.88;;;20.38;51.84
56414;BME280;42318;48.452;19.526;2023-05-16T05:10:55;97858.88;;;20.38;51.89
56414;BME280;42318;48.452;19.526;2023-05-16T05:18:25;97872.50;;;20.38;51.98
56414;BME280;42318;48.452;19.526;2023-05-16T05:25:56;97858.63;;;20.40;51.65
56414;BME280;42318;48.452;19.526;2023-05-16T05:33:27;97848.03;;;20.44;52.06
56414;BME280;42318;48.452;19.526;2023-05-16T05:41:00;97865.44;;;20.43;51.77
56414;BME280;42318;48.452;19.526;2023-05-16T05:48:31;97867.63;;;20.41;52.03
56414;BME280;42318;48.452;19.526;2023-05-16T05:56:02;97853.19;;;20.40;51.82
56414;BME280;42318;48.452;19.526;2023-05-16T06:03:33;97859.19;;;20.42;51.75
56414;BME280;42318;48.452;19.526;2023-05-16T06:11:04;97866.53;;;20.47;51.92
56414;BME280;42318;48.452;19.526;2023-05-16T06:18:34;97887.19;;;20.48;51.88
56414;BME280;42318;48.452;19.526;2023-05-16T06:26:05;97865.44;;;20.43;51.94
56414;BME280;42318;48.452;19.526;2023-05-16T06:33:36;97879.03;;;20.43;52.28
56414;BME280;42318;48.452;19.526;2023-05-16T06:41:07;97880.13;;;20.42;52.03
56414;BME280;42318;48.452;19.526;2023-05-16T06:48:37;97894.00;;;20.40;52.10
56414;BME280;42318;48.452;19.526;2023-05-16T06:56:08;97890.72;;;20.38;52.26
56414;BME280;42318;48.452;19.526;2023-05-16T07:03:39;97886.59;;;20.35;52.28
56414;BME280;42318;48.452;19.526;2023-05-16T07:11:10;97907.28;;;20.31;52.22
56414;BME280;42318;48.452;19.526;2023-05-16T07:18:41;97914.91;;;20.29;52.37
56414;BME280;42318;48.452;19.526;2023-05-16T07:26:12;97906.19;;;20.27;52.27
56414;BME280;42318;48.452;19.526;2023-05-16T07:33:43;97907.81;;;20.28;52.16
56414;BME280;42318;48.452;19.526;2023-05-16T07:41:15;97904.03;;;20.29;52.21
56414;BME280;42318;48.452;19.526;2023-05-16T07:48:45;97905.09;;;20.33;52.27
56414;BME280;42318;48.452;19.526;2023-05-16T07:56:16;97887.16;;;20.37;52.21
56414;BME280;42318;48.452;19.526;2023-05-16T08:03:47;97876.03;;;20.39;52.25
56414;BME280;42318;48.452;19.526;2023-05-16T08:11:18;97880.66;;;20.38;52.31
56414;BME280;42318;48.452;19.526;2023-05-16T08:18:51;97893.69;;;20.36;52.08
56414;BME280;42318;48.452;19.526;2023-05-16T08:26:22;97917.94;;;20.38;52.27
56414;BME280;42318;48.452;19.526;2023-05-16T08:33:54;97913.81;;;20.35;52.20
56414;BME280;42318;48.452;19.526;2023-05-16T08:41:25;97907.28;;;20.31;52.36
56414;BME280;42318;48.452;19.526;2023-05-16T08:48:58;97913.28;;;20.28;52.42
56414;BME280;42318;48.452;19.526;2023-05-16T08:56:30;97907.28;;;20.21;52.45
56414;BME280;42318;48.452;19.526;2023-05-16T09:04:08;97920.88;;;20.26;52.48
56414;BME280;42318;48.452;19.526;2023-05-16T09:11:39;97913.00;;;20.25;52.56
56414;BME280;42318;48.452;19.526;2023-05-16T09:19:11;97911.91;;;20.21;52.16
56414;BME280;42318;48.452;19.526;2023-05-16T09:26:43;97914.91;;;20.24;52.42
56414;BME280;42318;48.452;19.526;2023-05-16T09:34:14;97893.69;;;20.26;52.36
56414;BME280;42318;48.452;19.526;2023-05-16T09:41:45;97892.06;;;20.25;52.23
56414;BME280;42318;48.452;19.526;2023-05-16T09:49:15;97889.06;;;20.27;52.36
56414;BME280;42318;48.452;19.526;2023-05-16T09:56:50;97893.69;;;20.26;52.36
56414;BME280;42318;48.452;19.526;2023-05-16T10:04:21;97882.81;;;20.26;52.18
56414;BME280;42318;48.452;19.526;2023-05-16T10:11:51;97857.78;;;20.24;52.36
56414;BME280;42318;48.452;19.526;2023-05-16T10:19:24;97859.69;;;20.29;52.19
56414;BME280;42318;48.452;19.526;2023-05-16T10:26:56;97842.53;;;20.33;51.93
56414;BME280;42318;48.452;19.526;2023-05-16T10:34:27;97847.44;;;20.36;52.18
56414;BME280;42318;48.452;19.526;2023-05-16T10:41:58;97856.19;;;20.44;52.08
56414;BME280;42318;48.452;19.526;2023-05-16T10:49:30;97841.50;;;20.45;52.12
56414;BME280;42318;48.452;19.526;2023-05-16T10:57:09;97839.31;;;20.47;52.05
56414;BME280;42318;48.452;19.526;2023-05-16T11:04:45;97832.25;;;20.46;52.04
56414;BME280;42318;48.452;19.526;2023-05-16T11:12:19;97828.41;;;20.57;51.78
56414;BME280;42318;48.452;19.526;2023-05-16T11:19:59;97828.13;;;20.53;51.92
56414;BME280;42318;48.452;19.526;2023-05-16T11:27:31;97821.91;;;20.48;52.13
56414;BME280;42318;48.452;19.526;2023-05-16T11:35:04;97813.19;;;20.41;52.03
56414;BME280;42318;48.452;19.526;2023-05-16T11:42:36;97831.16;;;20.42;52.15
56414;BME280;42318;48.452;19.526;2023-05-16T11:57:45;97806.63;;;20.36;52.41
56414;BME280;42318;48.452;19.526;2023-05-16T12:05:18;97793.28;;;20.35;52.33
56414;BME280;42318;48.452;19.526;2023-05-16T12:12:51;97786.75;;;20.31;52.27
56414;BME280;42318;48.452;19.526;2023-05-16T12:20:22;97770.72;;;20.24;52.39
56414;BME280;42318;48.452;19.526;2023-05-16T12:28:00;97774.81;;;20.27;52.26
56414;BME280;42318;48.452;19.526;2023-05-16T12:35:32;97772.34;;;20.25;52.36
56414;BME280;42318;48.452;19.526;2023-05-16T12:43:05;97742.72;;;20.24;52.44
56414;BME280;42318;48.452;19.526;2023-05-16T12:50:42;97755.78;;;20.22;52.28
56414;BME280;42318;48.452;19.526;2023-05-16T12:58:16;97750.59;;;20.20;52.60
56414;BME280;42318;48.452;19.526;2023-05-16T13:05:47;97761.50;;;20.20;52.67
56414;BME280;42318;48.452;19.526;2023-05-16T13:13:17;97756.03;;;20.20;52.60
56414;BME280;42318;48.452;19.526;2023-05-16T13:20:48;97731.03;;;20.18;52.38
56414;BME280;42318;48.452;19.526;2023-05-16T13:28:20;97732.13;;;20.17;52.49
56414;BME280;42318;48.452;19.526;2023-05-16T13:35:51;97737.56;;;20.17;52.47
56414;BME280;42318;48.452;19.526;2023-05-16T13:43:22;97738.09;;;20.19;52.54
56414;BME280;42318;48.452;19.526;2023-05-16T13:50:53;97720.13;;;20.28;53.10
56414;BME280;42318;48.452;19.526;2023-05-16T13:58:25;97708.69;;;20.31;52.63
56414;BME280;42318;48.452;19.526;2023-05-16T14:05:56;97713.28;;;20.36;52.88
56414;BME280;42318;48.452;19.526;2023-05-16T14:13:27;97703.78;;;20.38;52.91
56414;BME280;42318;48.452;19.526;2023-05-16T14:20:58;97686.41;;;20.40;52.61
56414;BME280;42318;48.452;19.526;2023-05-16T14:28:28;97696.44;;;20.39;52.90
56414;BME280;42318;48.452;19.526;2023-05-16T14:36:00;97702.19;;;20.43;52.38
56414;BME280;42318;48.452;19.526;2023-05-16T14:43:30;97701.88;;;20.39;52.73
56414;BME280;42318;48.452;19.526;2023-05-16T14:51:02;97706.50;;;20.38;52.57
56414;BME280;42318;48.452;19.526;2023-05-16T14:58:34;97706.28;;;20.40;52.94
56414;BME280;42318;48.452;19.526;2023-05-16T15:06:05;97693.16;;;20.37;52.90
56414;BME280;42318;48.452;19.526;2023-05-16T15:13:37;97691.53;;;20.36;53.11
56414;BME280;42318;48.452;19.526;2023-05-16T15:21:08;97672.22;;;20.32;53.19
56414;BME280;42318;48.452;19.526;2023-05-16T15:28:39;97666.25;;;20.30;52.98
56414;BME280;42318;48.452;19.526;2023-05-16T15:36:10;97662.72;;;20.30;52.85
56414;BME280;42318;48.452;19.526;2023-05-16T15:43:41;97655.66;;;20.29;52.91
56414;BME280;42318;48.452;19.526;2023-05-16T15:51:12;97655.09;;;20.27;53.16
56414;BME280;42318;48.452;19.526;2023-05-16T15:58:43;97639.31;;;20.29;53.37
56414;BME280;42318;48.452;19.526;2023-05-16T16:06:16;97640.41;;;20.33;53.23
56414;BME280;42318;48.452;19.526;2023-05-16T16:13:46;97630.34;;;20.38;52.90
56414;BME280;42318;48.452;19.526;2023-05-16T16:21:17;97619.19;;;20.45;53.09
56414;BME280;42318;48.452;19.526;2023-05-16T16:28:49;97630.88;;;20.46;53.06
56414;BME280;42318;48.452;19.526;2023-05-16T16:36:20;97640.13;;;20.45;53.34
56414;BME280;42318;48.452;19.526;2023-05-16T16:43:51;97634.16;;;20.43;53.04
56414;BME280;42318;48.452;19.526;2023-05-16T16:51:22;97643.94;;;20.44;53.09
56414;BME280;42318;48.452;19.526;2023-05-16T16:58:54;97627.63;;;20.44;53.13
56414;BME280;42318;48.452;19.526;2023-05-16T17:06:25;97643.69;;;20.40;53.17
56414;BME280;42318;48.452;19.526;2023-05-16T17:13:56;97657.84;;;20.42;52.96
56414;BME280;42318;48.452;19.526;2023-05-16T17:21:29;97665.19;;;20.42;53.07
56414;BME280;42318;48.452;19.526;2023-05-16T17:29:01;97663.00;;;20.44;52.86
56414;BME280;42318;48.452;19.526;2023-05-16T17:36:33;97639.88;;;20.41;52.52
56414;BME280;42318;48.452;19.526;2023-05-16T17:44:06;97643.38;;;20.47;52.61
56414;BME280;42318;48.452;19.526;2023-05-16T17:51:46;97619.94;;;20.56;52.48
56414;BME280;42318;48.452;19.526;2023-05-16T17:59:17;97629.16;;;20.60;52.47
56414;BME280;42318;48.452;19.526;2023-05-16T18:06:48;97639.50;;;20.63;52.56
56414;BME280;42318;48.452;19.526;2023-05-16T18:14:22;97640.03;;;20.65;53.20
56414;BME280;42318;48.452;19.526;2023-05-16T18:21:53;97643.78;;;20.74;52.69
56414;BME280;42318;48.452;19.526;2023-05-16T18:29:24;97648.97;;;20.70;52.55
56414;BME280;42318;48.452;19.526;2023-05-16T18:36:55;97652.53;;;20.66;52.87
56414;BME280;42318;48.452;19.526;2023-05-16T18:44:26;97657.44;;;20.64;52.73
56414;BME280;42318;48.452;19.526;2023-05-16T18:51:56;97634.34;;;20.61;52.73
56414;BME280;42318;48.452;19.526;2023-05-16T18:59:28;97638.72;;;20.57;52.41
56414;BME280;42318;48.452;19.526;2023-05-16T19:06:59;97642.00;;;20.54;52.87
56414;BME280;42318;48.452;19.526;2023-05-16T19:14:29;97653.16;;;20.53;52.74
56414;BME280;42318;48.452;19.526;2023-05-16T19:22:00;97639.81;;;20.51;52.80
56414;BME280;42318;48.452;19.526;2023-05-16T19:29:32;97631.13;;;20.49;52.84
56414;BME280;42318;48.452;19.526;2023-05-16T19:37:04;97624.34;;;20.47;52.71
56414;BME280;42318;48.452;19.526;2023-05-16T19:44:35;97641.47;;;20.47;52.82
56414;BME280;42318;48.452;19.526;2023-05-16T19:52:06;97618.38;;;20.45;53.05
56414;BME280;42318;48.452;19.526;2023-05-16T19:59:40;97621.38;;;20.43;53.13
56414;BME280;42318;48.452;19.526;2023-05-16T20:07:10;97590.34;;;20.39;53.24
56414;BME280;42318;48.452;19.526;2023-05-16T20:14:41;97606.13;;;20.42;52.94
56414;BME280;42318;48.452;19.526;2023-05-16T20:22:12;97603.13;;;20.38;53.07
56414;BME280;42318;48.452;19.526;2023-05-16T20:29:43;97587.38;;;20.41;52.62
56414;BME280;42318;48.452;19.526;2023-05-16T20:37:14;97595.47;;;20.51;52.72
56414;BME280;42318;48.452;19.526;2023-05-16T20:44:45;97599.78;;;20.57;52.54
56414;BME280;42318;48.452;19.526;2023-05-16T20:52:16;97594.03;;;20.63;52.34
56414;BME280;42318;48.452;19.526;2023-05-16T20:59:46;97590.47;;;20.68;52.55
56414;BME280;42318;48.452;19.526;2023-05-16T21:07:17;97587.75;;;20.68;52.47
56414;BME280;42318;48.452;19.526;2023-05-16T21:14:48;97593.19;;;20.68;52.91
56414;BME280;42318;48.452;19.526;2023-05-16T21:22:19;97595.09;;;20.67;52.82
56414;BME280;42318;48.452;19.526;2023-05-16T21:29:50;97589.38;;;20.69;52.96
56414;BME280;42318;48.452;19.526;2023-05-16T21:37:20;97604.06;;;20.68;52.39
56414;BME280;42318;48.452;19.526;2023-05-16T21:44:51;97579.34;;;20.64;52.50
56414;BME280;42318;48.452;19.526;2023-05-16T21:52:22;97574.16;;;20.63;52.67
56414;BME280;42318;48.452;19.526;2023-05-16T21:59:53;97579.09;;;20.61;52.53
56414;BME280;42318;48.452;19.526;2023-05-16T22:07:24;97569.56;;;20.58;52.52
56414;BME280;42318;48.452;19.526;2023-05-16T22:14:58;97588.91;;;20.57;52.48
56414;BME280;42318;48.452;19.526;2023-05-16T22:22:29;97584.03;;;20.54;52.70
56414;BME280;42318;48.452;19.526;2023-05-16T22:30:00;97588.66;;;20.53;52.63
56414;BME280;42318;48.452;19.526;2023-05-16T22:37:30;97572.88;;;20.50;52.76
56414;BME280;42318;48.452;19.526;2023-05-16T22:45:02;97563.91;;;20.50;52.70
56414;BME280;42318;48.452;19.526;2023-05-16T22:52:33;97557.13;;;20.47;52.85
56414;BME280;42318;48.452;19.526;2023-05-16T23:00:04;97565.56;;;20.46;53.00
56414;BME280;42318;48.452;19.526;2023-05-16T23:07:35;97554.16;;;20.44;52.88
56414;BME280;42318;48.452;19.526;2023-05-16T23:15:06;97550.63;;;20.43;52.86
56414;BME280;42318;48.452;19.526;2023-05-16T23:22:39;97548.19;;;20.42;53.16
56414;BME280;42318;48.452;19.526;2023-05-16T23:30:10;97533.19;;;20.39;52.94
56414;BME280;42318;48.452;19.526;2023-05-16T23:37:41;97549.53;;;20.39;52.97
56414;BME280;42318;48.452;19.526;2023-05-16T23:45:12;97548.19;;;20.42;52.75
56414;BME280;42318;48.452;19.526;2023-05-16T23:52:42;97552.00;;;20.41;53.39
